Time;durP1;ratioP1;P1;durP2;ratioP2;P2;SDS_P1;SDS_P2;PMS_P1;PMS_P2;Temp;Humidity;BMP_temperature;BMP_pressure;BME280_temperature;BME280_humidity;BME280_pressure;Samples;Min_cycle;Max_cycle;Signal;HPM_P1;HPM_P2
2023/01/21 00:02:10;;;;;;;47.88;18.45;;;;;;;-142.75;100.00;79498.47;5020401;28;20064;-66
2023/01/21 00:04:37;;;;;;;;;;;;;;;-142.75;100.00;79492.56;5021240;28;20021;-66
2023/01/21 00:07:03;;;;;;;43.00;16.17;;;;;;;-142.75;100.00;79496.50;5019648;28;19920;-66
2023/01/21 00:09:28;;;;;;;51.77;19.63;;;;;;;-142.75;100.00;79502.44;5002835;28;20132;-66
2023/01/21 00:11:53;;;;;;;43.47;18.45;;;;;;;-142.75;100.00;79531.97;5020699;28;20087;-66
2023/01/21 00:14:19;;;;;;;50.53;19.58;;;;;;;-142.75;100.00;79547.72;5020719;28;20068;-65
2023/01/21 00:16:44;;;;;;;41.35;17.08;;;;;;;-142.75;100.00;79545.75;5002024;28;20029;-66
2023/01/21 00:19:09;;;;;;;35.67;14.18;;;;;;;-142.75;100.00;79549.69;5020447;28;20386;-66
2023/01/21 00:21:35;;;;;;;46.33;16.60;;;;;;;-142.75;100.00;79549.69;5020682;28;20796;-65
2023/01/21 00:24:00;;;;;;;41.83;15.05;;;;;;;-142.75;100.00;79549.69;5020180;28;20028;-66
2023/01/21 00:26:25;;;;;;;35.97;15.52;;;;;;;-142.75;100.00;79559.56;5011854;28;20029;-66
2023/01/21 00:28:51;;;;;;;51.90;18.15;;;;;;;-142.75;100.00;79559.56;5040107;28;20020;-66
2023/01/21 00:31:16;;;;;;;52.55;20.13;;;;;;;-142.75;100.00;79567.44;5039651;28;20028;-66
2023/01/21 00:33:41;;;;;;;53.67;19.40;;;;;;;-142.75;100.00;79571.38;5022172;28;20021;-65
2023/01/21 00:36:11;;;;;;;51.42;20.23;;;;;;;-142.75;100.00;79575.31;5039989;28;20119;-66
2023/01/21 00:38:37;;;;;;;44.40;19.00;;;;;;;-142.75;100.00;79579.25;5021226;28;20021;-66
2023/01/21 00:41:08;;;;;;;50.38;19.48;;;;;;;-142.75;100.00;79571.38;5020543;28;20079;-65
2023/01/21 00:43:34;;;;;;;37.47;15.20;;;;;;;-142.75;100.00;79589.09;5004950;28;20029;-66
2023/01/21 00:45:59;;;;;;;40.90;16.25;;;;;;;-142.75;100.00;79595.00;5039630;28;20722;-66
2023/01/21 00:48:25;;;;;;;45.47;18.65;;;;;;;-142.75;100.00;79595.00;5036864;28;20054;-67
2023/01/21 00:50:54;;;;;;;45.50;19.20;;;;;;;-142.75;100.00;79591.06;5020597;28;20483;-67
2023/01/21 00:53:20;;;;;;;48.90;17.53;;;;;;;-142.75;100.00;79614.72;5019591;28;20491;-67
2023/01/21 00:55:46;;;;;;;44.60;18.17;;;;;;;-142.75;100.00;79604.88;5019868;28;20025;-66
2023/01/21 00:58:11;;;;;;;46.28;17.95;;;;;;;-142.75;100.00;79612.75;5018850;28;20426;-67
2023/01/21 01:00:36;;;;;;;47.03;17.80;;;;;;;-142.75;100.00;79624.56;5019565;28;20557;-67
2023/01/21 01:03:02;;;;;;;43.50;18.02;;;;;;;-142.75;100.00;79622.59;5019393;28;20042;-67
2023/01/21 01:05:27;;;;;;;41.95;18.08;;;;;;;-142.75;100.00;79618.66;5019685;28;20036;-67
2023/01/21 01:07:53;;;;;;;48.92;18.55;;;;;;;-142.75;100.00;79602.88;5001372;28;20021;-66
2023/01/21 01:10:18;;;;;;;44.08;17.50;;;;;;;-142.75;100.00;79618.66;5019120;28;20083;-65
2023/01/21 01:12:44;;;;;;;46.85;19.40;;;;;;;-142.75;100.00;79604.88;5020786;28;20010;-67
2023/01/21 01:15:09;;;;;;;54.97;19.73;;;;;;;-142.75;100.00;79606.84;5019126;28;20444;-67
2023/01/21 01:17:35;;;;;;;53.08;19.35;;;;;;;-142.75;100.00;79614.72;5018806;28;20032;-67
2023/01/21 01:20:00;;;;;;;47.17;17.20;;;;;;;-142.75;100.00;79632.44;5019461;28;20029;-66
2023/01/21 01:22:26;;;;;;;47.20;18.48;;;;;;;-142.75;100.00;79634.41;5001572;28;20040;-67
2023/01/21 01:24:51;;;;;;;41.42;17.67;;;;;;;-142.75;100.00;79638.34;5002173;28;20033;-66
2023/01/21 01:27:17;;;;;;;41.97;16.35;;;;;;;-142.75;100.00;79646.22;5018318;28;20041;-66
2023/01/21 01:29:42;;;;;;;50.42;18.83;;;;;;;-142.75;100.00;79646.22;5001221;28;20367;-66
2023/01/21 01:32:08;;;;;;;44.05;16.58;;;;;;;-142.75;100.00;79642.28;5018942;28;20040;-67
2023/01/21 01:34:34;;;;;;;36.67;15.43;;;;;;;-142.75;100.00;79654.13;5019229;28;20022;-67
2023/01/21 01:36:59;;;;;;;45.33;17.95;;;;;;;-142.75;100.00;79646.22;5018450;28;20087;-67
2023/01/21 01:39:24;;;;;;;35.85;16.42;;;;;;;-142.75;100.00;79646.22;5001553;28;20841;-66
2023/01/21 01:41:50;;;;;;;50.97;19.55;;;;;;;-142.75;100.00;79646.22;5019363;28;20121;-66
2023/01/21 01:44:52;;;;;;;40.92;16.88;;;;;;;-142.75;100.00;79638.34;5001474;28;20168;-66
2023/01/21 01:47:20;;;;;;;45.03;16.80;;;;;;;-142.75;100.00;79638.34;5000686;28;20029;-66
2023/01/21 01:49:46;;;;;;;44.43;17.53;;;;;;;-142.75;100.00;79648.19;5019145;28;20025;-67
2023/01/21 01:52:15;;;;;;;37.60;16.57;;;;;;;-142.75;100.00;79634.41;5018774;28;20380;-67
2023/01/21 01:54:45;;;;;;;47.50;18.20;;;;;;;-142.75;100.00;79660.03;5019023;28;20025;-67
2023/01/21 01:57:13;;;;;;;42.30;18.83;;;;;;;-142.75;100.00;79652.13;5000482;28;20124;-66
2023/01/21 01:59:40;;;;;;;43.97;18.73;;;;;;;-142.75;100.00;79667.91;5019160;28;20029;-66
2023/01/21 02:02:08;;;;;;;41.80;18.37;;;;;;;-142.75;100.00;79658.06;5000983;28;20445;-67
2023/01/21 02:04:41;;;;;;;47.50;18.70;;;;;;;-142.75;100.00;79648.19;5018914;28;20056;-67
2023/01/21 02:07:07;;;;;;;36.17;15.07;;;;;;;-142.75;100.00;79679.72;5031125;28;20033;-67
2023/01/21 02:09:32;;;;;;;38.33;16.42;;;;;;;-142.75;100.00;79701.38;5038970;28;20099;-66
2023/01/21 02:12:00;;;;;;;38.97;15.93;;;;;;;-142.75;100.00;79703.38;5038119;28;20440;-66
2023/01/21 02:14:27;;;;;;;43.70;16.90;;;;;;;-142.75;100.00;79717.16;5038713;28;20079;-66
2023/01/21 02:17:10;;;;;;;38.43;15.80;;;;;;;-142.75;100.00;79719.13;5038138;28;20028;-67
2023/01/21 02:19:44;;;;;;;38.13;14.90;;;;;;;-142.75;100.00;79740.78;5038536;28;21453;-67
2023/01/21 02:22:15;;;;;;;39.13;14.83;;;;;;;-142.75;100.00;79740.78;5041685;28;20025;-67
2023/01/21 02:25:15;;;;;;;35.73;16.03;;;;;;;-142.75;100.00;79728.97;5024493;28;20086;-66
2023/01/21 02:27:49;;;;;;;38.07;15.53;;;;;;;-142.75;100.00;79738.81;5023904;28;20032;-67
2023/01/21 02:30:36;;;;;;;41.90;14.63;;;;;;;-142.75;100.00;79728.97;5042210;28;20036;-67
2023/01/21 02:33:40;;;;;;;27.25;10.68;;;;;;;-142.75;100.00;79738.81;5041797;28;20147;-66
2023/01/21 02:36:23;;;;;;;39.60;16.50;;;;;;;-142.75;100.00;79748.66;4972080;28;20058;-66
2023/01/21 02:39:11;;;;;;;42.30;16.40;;;;;;;-142.75;100.00;79752.63;5021882;28;20021;-67
2023/01/21 02:41:54;;;;;;;38.23;15.53;;;;;;;-142.75;100.00;79748.66;5004373;28;20171;-66
2023/01/21 02:44:41;;;;;;;34.53;13.50;;;;;;;-142.75;100.00;79776.25;5022364;28;20029;-67
2023/01/21 02:47:31;;;;;;;37.17;15.37;;;;;;;-142.75;100.00;79774.28;5034591;28;20053;-67
2023/01/21 02:49:59;;;;;;;44.70;17.53;;;;;;;-142.75;100.00;79770.34;5022440;28;20033;-65
2023/01/21 02:52:25;;;;;;;41.03;15.93;;;;;;;-142.75;100.00;79762.47;5021851;28;20544;-67
2023/01/21 02:54:56;;;;;;;39.67;16.40;;;;;;;-142.75;100.00;79768.38;5022262;28;20047;-67
2023/01/21 02:57:26;;;;;;;39.33;15.47;;;;;;;-142.75;100.00;79764.44;5021401;28;20025;-64
2023/01/21 02:59:54;;;;;;;45.57;16.53;;;;;;;-142.75;100.00;79758.53;5022192;28;20029;-66
2023/01/21 03:02:19;;;;;;;40.90;16.77;;;;;;;-142.75;100.00;79772.31;5021653;28;20025;-67
2023/01/21 03:04:59;;;;;;;36.13;14.55;;;;;;;-142.75;100.00;79776.25;5004269;28;20045;-67
2023/01/21 03:07:33;;;;;;;42.70;16.30;;;;;;;-142.75;100.00;79776.25;5020923;28;20033;-67
2023/01/21 03:10:09;;;;;;;37.57;15.17;;;;;;;-142.75;100.00;79756.56;5021576;28;20033;-67
2023/01/21 03:13:03;;;;;;;38.63;16.37;;;;;;;-142.75;100.00;79744.72;5021342;28;20033;-67
2023/01/21 03:18:38;;;;;;;37.17;14.33;;;;;;;-142.75;100.00;79807.78;5030254;28;20048;-66
2023/01/21 03:21:08;;;;;;;36.83;14.77;;;;;;;-142.75;100.00;79799.91;5041118;28;20052;-64
2023/01/21 03:23:37;;;;;;;40.63;15.90;;;;;;;-142.75;100.00;79807.78;5041226;28;20344;-66
2023/01/21 03:26:05;;;;;;;41.50;15.30;;;;;;;-142.75;100.00;79811.72;5041144;28;20554;-66
2023/01/21 03:28:35;;;;;;;31.63;14.30;;;;;;;-142.75;100.00;79815.66;5040367;28;20039;-67
2023/01/21 03:31:13;;;;;;;40.47;15.27;;;;;;;-142.75;100.00;79813.69;5040603;28;20032;-67
2023/01/21 03:33:44;;;;;;;38.40;15.13;;;;;;;-142.75;100.00;79801.88;5023433;28;20024;-67
2023/01/21 03:36:19;;;;;;;42.10;14.97;;;;;;;-142.75;100.00;79815.66;5040954;28;20069;-66
2023/01/21 03:38:48;;;;;;;33.43;15.57;;;;;;;-142.75;100.00;79805.81;5040868;28;20793;-66
2023/01/21 03:41:21;;;;;;;37.93;15.73;;;;;;;-142.75;100.00;79809.75;5040695;28;20139;-64
2023/01/21 03:43:47;;;;;;;41.57;15.43;;;;;;;-142.75;100.00;79813.69;5041108;28;20506;-66
2023/01/21 03:46:20;;;;;;;44.97;15.50;;;;;;;-142.75;100.00;79837.31;5040718;28;20025;-66
2023/01/21 03:48:54;;;;;;;37.50;17.70;;;;;;;-142.75;100.00;79849.16;5022588;28;20087;-65
2023/01/21 03:51:24;;;;;;;31.67;14.23;;;;;;;-142.75;100.00;79841.25;5040563;28;20031;-66
2023/01/21 03:53:58;;;;;;;35.40;15.13;;;;;;;-142.75;100.00;79831.41;5040982;28;20032;-67
2023/01/21 03:56:24;;;;;;;36.13;15.70;;;;;;;-142.75;100.00;79809.75;5040617;28;20462;-63
2023/01/21 03:58:49;;;;;;;35.57;16.27;;;;;;;-142.75;100.00;79799.91;5022492;28;20052;-66
2023/01/21 04:01:15;;;;;;;41.95;16.17;;;;;;;-142.75;100.00;79803.84;5040426;28;20103;-66
2023/01/21 04:03:42;;;;;;;38.70;17.20;;;;;;;-142.75;100.00;79797.94;5040707;28;20128;-66
2023/01/21 04:06:12;;;;;;;39.17;17.00;;;;;;;-142.75;100.00;79819.59;5040310;28;20094;-67
2023/01/21 04:08:38;;;;;;;35.20;14.70;;;;;;;-142.75;100.00;79860.97;5039827;28;20027;-65
2023/01/21 04:11:03;;;;;;;38.17;15.80;;;;;;;-142.75;100.00;79862.94;5040189;28;20032;-68
2023/01/21 04:13:28;;;;;;;32.63;14.50;;;;;;;-142.75;100.00;79864.91;5040254;28;20040;-67
2023/01/21 04:15:54;;;;;;;42.63;15.50;;;;;;;-142.75;100.00;79862.94;5023050;28;20025;-67
2023/01/21 04:18:19;;;;;;;29.80;13.10;;;;;;;-142.75;100.00;79870.81;5021568;28;20024;-67
2023/01/21 04:20:45;;;;;;;30.67;13.40;;;;;;;-142.75;100.00;79866.88;5040169;28;20029;-67
2023/01/21 04:23:11;;;;;;;;;;;;;;;-142.75;100.00;79862.94;5040510;28;20074;-67
2023/01/21 04:25:36;;;;;;;34.37;14.70;;;;;;;-142.75;100.00;79851.13;5040236;28;20011;-67
2023/01/21 04:28:02;;;;;;;31.10;14.27;;;;;;;-142.75;100.00;79847.19;5039019;28;20043;-67
2023/01/21 04:30:27;;;;;;;33.13;14.63;;;;;;;-142.75;100.00;79853.09;5039797;28;20060;-67
2023/01/21 04:32:53;;;;;;;38.47;14.88;;;;;;;-142.75;100.00;79862.94;5040223;28;20021;-67
2023/01/21 04:35:18;;;;;;;30.77;14.30;;;;;;;-142.75;100.00;79866.88;5039745;28;20024;-67
2023/01/21 04:37:43;;;;;;;39.05;15.20;;;;;;;-142.75;100.00;79868.84;5039327;28;20082;-67
2023/01/21 04:40:09;;;;;;;41.83;15.20;;;;;;;-142.75;100.00;79859.00;5039487;28;20025;-66
2023/01/21 04:42:34;;;;;;;;;;;;;;;-142.75;100.00;79845.22;5040117;28;20031;-67
2023/01/21 04:45:00;;;;;;;37.73;15.03;;;;;;;-142.75;100.00;79839.28;5003630;28;19913;-67
2023/01/21 04:47:25;;;;;;;36.60;15.35;;;;;;;-142.75;100.00;79853.09;5019209;28;20788;-68
2023/01/21 04:49:51;;;;;;;38.17;16.52;;;;;;;-142.75;100.00;79876.72;5019939;28;20025;-67
2023/01/21 04:52:17;;;;;;;41.63;15.68;;;;;;;-142.75;100.00;79864.91;5019668;28;20025;-67
2023/01/21 04:54:42;;;;;;;38.72;15.00;;;;;;;-142.75;100.00;79888.53;5019575;28;20061;-66
2023/01/21 04:57:07;;;;;;;40.08;15.23;;;;;;;-142.75;100.00;79884.59;5019012;28;20053;-68
2023/01/21 04:59:33;;;;;;;35.25;14.60;;;;;;;-142.75;100.00;79882.63;5019566;28;20490;-67
2023/01/21 05:01:58;;;;;;;34.90;15.13;;;;;;;-142.75;100.00;79859.00;5001735;28;20026;-67
2023/01/21 05:04:23;;;;;;;39.85;17.00;;;;;;;-142.75;100.00;79853.09;5019443;28;20036;-67
2023/01/21 05:06:49;;;;;;;39.83;16.83;;;;;;;-142.75;100.00;79849.16;5001373;28;20025;-67
2023/01/21 05:09:14;;;;;;;39.08;16.85;;;;;;;-142.75;100.00;79839.28;5019419;28;20379;-66
2023/01/21 05:11:39;;;;;;;39.00;16.40;;;;;;;-142.75;100.00;79847.19;5019224;28;20440;-67
2023/01/21 05:14:05;;;;;;;42.00;15.57;;;;;;;-142.75;100.00;79839.28;5039053;28;20187;-67
2023/01/21 05:16:30;;;;;;;36.70;16.75;;;;;;;-142.75;100.00;79835.34;5038845;28;20604;-65
2023/01/21 05:18:55;;;;;;;34.95;15.40;;;;;;;-142.75;100.00;79855.06;5038807;28;20044;-64
2023/01/21 05:21:21;;;;;;;41.38;17.40;;;;;;;-142.75;100.00;79843.22;5021437;28;20052;-64
2023/01/21 05:23:46;;;;;;;33.42;14.60;;;;;;;-142.75;100.00;79860.97;5039304;28;20031;-67
2023/01/21 05:26:11;;;;;;;36.70;16.13;;;;;;;-142.75;100.00;79880.66;5039254;28;20106;-65
2023/01/21 05:28:37;;;;;;;39.22;16.95;;;;;;;-142.75;100.00;79890.50;5038300;28;20111;-68
2023/01/21 05:31:03;;;;;;;43.80;15.50;;;;;;;-142.75;100.00;79878.69;5039006;28;20024;-68
2023/01/21 05:33:34;;;;;;;35.88;15.10;;;;;;;-142.75;100.00;79868.84;5038938;28;20025;-67
2023/01/21 05:36:01;;;;;;;32.77;14.57;;;;;;;-142.75;100.00;79884.59;5038979;28;20144;-68
2023/01/21 05:38:27;;;;;;;32.70;14.93;;;;;;;-142.75;100.00;79888.53;5020455;28;20033;-67
2023/01/21 05:41:00;;;;;;;41.77;16.70;;;;;;;-142.75;100.00;79935.84;5039431;28;20379;-67
2023/01/21 05:43:26;;;;;;;37.03;14.93;;;;;;;-142.75;100.00;79937.81;5038822;28;20079;-67
2023/01/21 05:45:52;;;;;;;38.38;17.27;;;;;;;-142.75;100.00;79906.28;5039166;28;20029;-67
2023/01/21 05:48:17;;;;;;;38.15;16.58;;;;;;;-142.75;100.00;79904.31;5038179;28;20020;-67
2023/01/21 05:50:42;;;;;;;36.47;15.73;;;;;;;-142.75;100.00;79894.47;5039084;28;20021;-67
2023/01/21 05:53:07;;;;;;;38.42;16.60;;;;;;;-142.75;100.00;79890.50;5038975;28;20021;-67
2023/01/21 05:55:33;;;;;;;38.28;16.15;;;;;;;-142.75;100.00;79882.63;5041462;28;20390;-67
2023/01/21 05:57:58;;;;;;;39.35;14.68;;;;;;;-142.75;100.00;79888.53;5042518;28;20037;-66
2023/01/21 06:00:23;;;;;;;38.88;15.32;;;;;;;-142.75;100.00;79880.66;5042606;28;20029;-67
2023/01/21 06:02:49;;;;;;;34.08;14.35;;;;;;;-142.75;100.00;79892.50;5042854;28;20483;-68
2023/01/21 06:05:14;;;;;;;35.08;14.55;;;;;;;-142.75;100.00;79910.22;5024571;28;20258;-67
2023/01/21 06:07:39;;;;;;;33.95;15.88;;;;;;;-142.75;100.00;79914.16;5042096;28;20071;-65
2023/01/21 06:10:05;;;;;;;33.92;15.45;;;;;;;-142.75;100.00;79927.94;5042493;28;20160;-67
2023/01/21 06:12:31;;;;;;;36.45;14.02;;;;;;;-142.75;100.00;79951.59;5042207;28;20017;-67
2023/01/21 06:14:56;;;;;;;34.50;14.98;;;;;;;-142.75;100.00;79955.53;5042550;28;20033;-65
2023/01/21 06:17:22;;;;;;;34.92;14.88;;;;;;;-142.75;100.00;79961.44;5041626;28;20055;-66
2023/01/21 06:19:47;;;;;;;38.13;16.17;;;;;;;-142.75;100.00;79973.25;5042799;28;20052;-67
2023/01/21 06:22:15;;;;;;;39.17;15.38;;;;;;;-142.75;100.00;79973.25;5041980;28;20029;-68
2023/01/21 06:24:40;;;;;;;33.97;15.20;;;;;;;-142.75;100.00;79967.34;5042449;28;20025;-67
2023/01/21 06:27:05;;;;;;;42.10;16.20;;;;;;;-142.75;100.00;79971.28;5041542;28;20052;-67
2023/01/21 06:29:31;;;;;;;42.40;16.80;;;;;;;-142.75;100.00;79965.38;5042370;28;20029;-67
2023/01/21 06:31:56;;;;;;;33.70;15.15;;;;;;;-142.75;100.00;79955.53;5024348;28;20017;-65
2023/01/21 06:34:21;;;;;;;30.83;15.32;;;;;;;-142.75;100.00;79967.34;5030522;28;20834;-67
2023/01/21 06:36:47;;;;;;;39.70;15.70;;;;;;;-142.75;100.00;79981.16;5021871;28;20222;-68
2023/01/21 06:39:12;;;;;;;34.47;14.63;;;;;;;-142.75;100.00;79977.19;5005273;28;20029;-67
2023/01/21 06:41:38;;;;;;;36.85;15.65;;;;;;;-142.75;100.00;79981.16;5042334;28;20020;-67
2023/01/21 06:44:03;;;;;;;39.38;15.18;;;;;;;-142.75;100.00;79996.91;5042165;28;20110;-67
2023/01/21 06:46:29;;;;;;;35.75;15.68;;;;;;;-142.75;100.00;79994.94;5041901;28;20029;-67
2023/01/21 06:48:54;;;;;;;36.45;15.85;;;;;;;-142.75;100.00;80000.84;5041822;28;20025;-68
2023/01/21 06:51:19;;;;;;;33.35;14.90;;;;;;;-142.75;100.00;79998.88;5041824;28;20744;-67
2023/01/21 06:53:45;;;;;;;30.85;14.40;;;;;;;-142.75;100.00;79996.91;5041821;28;20104;-68
2023/01/21 06:56:10;;;;;;;41.42;16.92;;;;;;;-142.75;100.00;79996.91;5041742;28;20032;-67
2023/01/21 06:58:35;;;;;;;37.00;16.40;;;;;;;-142.75;100.00;80012.66;5041135;28;20112;-68
2023/01/21 07:01:00;;;;;;;37.95;15.70;;;;;;;-142.75;100.00;80028.44;5041450;28;20027;-68
2023/01/21 07:03:26;;;;;;;35.30;15.07;;;;;;;-142.75;100.00;80036.31;5041520;28;20079;-68
2023/01/21 07:05:51;;;;;;;35.65;14.23;;;;;;;-142.75;100.00;80069.81;5023764;28;20126;-68
2023/01/21 07:08:17;;;;;;;33.67;15.82;;;;;;;-142.75;100.00;80071.78;5040519;28;20048;-67
2023/01/21 07:10:42;;;;;;;31.15;13.40;;;;;;;-142.75;100.00;80069.81;5023614;28;20071;-68
2023/01/21 07:13:07;;;;;;;33.35;14.82;;;;;;;-142.75;100.00;80091.47;5041103;28;20021;-64
2023/01/21 07:15:32;;;;;;;35.88;14.52;;;;;;;-142.75;100.00;80073.75;5029317;28;20624;-64
2023/01/21 07:17:58;;;;;;;41.00;16.58;;;;;;;-142.75;100.00;80081.63;4998332;28;20508;-66
2023/01/21 07:20:24;;;;;;;35.10;14.40;;;;;;;-142.75;100.00;80071.78;5001677;28;20479;-66
2023/01/21 07:22:50;;;;;;;34.13;14.37;;;;;;;-142.75;100.00;80087.53;5000035;28;20170;-63
2023/01/21 07:25:15;;;;;;;32.78;14.77;;;;;;;-142.75;100.00;80101.31;5000788;28;20162;-65
2023/01/21 07:27:41;;;;;;;34.25;14.23;;;;;;;-142.75;100.00;80097.38;4999318;28;20025;-63
2023/01/21 07:30:07;;;;;;;40.53;15.23;;;;;;;-142.75;100.00;80095.41;4999571;28;20445;-64
2023/01/21 07:32:32;;;;;;;34.20;13.67;;;;;;;-142.75;100.00;80101.31;5000456;28;20148;-65
2023/01/21 07:34:57;;;;;;;33.95;13.35;;;;;;;-142.75;100.00;80115.13;5000249;28;20336;-65
2023/01/21 07:37:23;;;;;;;35.45;15.15;;;;;;;-142.75;100.00;80111.19;4999818;28;20112;-66
2023/01/21 07:39:48;;;;;;;32.53;13.93;;;;;;;-142.75;100.00;80115.13;5002221;28;20065;-64
2023/01/21 07:42:14;;;;;;;34.58;12.82;;;;;;;-142.75;100.00;80109.22;5000112;28;20057;-63
2023/01/21 07:44:39;;;;;;;31.77;13.52;;;;;;;-142.75;100.00;80119.06;5000746;28;20036;-65
2023/01/21 07:47:04;;;;;;;31.05;13.80;;;;;;;-142.75;100.00;80130.88;5000260;28;20482;-66
2023/01/21 07:49:30;;;;;;;37.45;15.30;;;;;;;-142.75;100.00;80111.19;5000926;28;20107;-63
2023/01/21 07:51:56;;;;;;;36.70;15.43;;;;;;;-142.75;100.00;80093.44;4999833;28;20037;-63
2023/01/21 07:54:21;;;;;;;33.67;15.87;;;;;;;-142.75;100.00;80113.16;5018238;28;20013;-63
2023/01/21 07:56:47;;;;;;;39.22;16.42;;;;;;;-142.75;100.00;80089.50;4999260;28;20423;-64
2023/01/21 07:59:12;;;;;;;36.85;15.65;;;;;;;-142.75;100.00;80087.53;4999975;28;20113;-64
2023/01/21 08:01:38;;;;;;;44.90;17.08;;;;;;;-142.75;100.00;80087.53;5000715;28;20065;-63
2023/01/21 08:04:03;;;;;;;35.55;15.68;;;;;;;-142.75;100.00;80083.59;5000523;28;20049;-64
2023/01/21 08:06:28;;;;;;;40.50;16.83;;;;;;;-142.75;100.00;80067.84;5000270;28;20079;-64
2023/01/21 08:08:54;;;;;;;39.63;16.45;;;;;;;-142.75;100.00;80075.72;4998607;28;20029;-63
2023/01/21 08:11:19;;;;;;;35.55;16.58;;;;;;;-142.75;100.00;80083.59;5016767;28;20026;-67
2023/01/21 08:13:45;;;;;;;37.10;15.73;;;;;;;-142.75;100.00;80057.97;5000538;28;20475;-62
2023/01/21 08:16:12;;;;;;;37.45;15.23;;;;;;;-142.75;100.00;80067.84;4999863;28;20029;-63
2023/01/21 08:18:37;;;;;;;41.33;16.77;;;;;;;-142.75;100.00;80034.34;4997838;28;20022;-64
2023/01/21 08:21:03;;;;;;;40.72;16.38;;;;;;;-142.75;100.00;80028.44;4997421;28;20021;-65
2023/01/21 08:23:28;;;;;;;38.00;17.88;;;;;;;-142.75;100.00;80008.72;5000240;28;20103;-62
2023/01/21 08:25:54;;;;;;;38.80;16.70;;;;;;;-142.75;100.00;79975.22;5016474;28;20037;-64
2023/01/21 08:28:21;;;;;;;42.58;16.33;;;;;;;-142.75;100.00;79969.31;5016003;28;20073;-64
2023/01/21 08:30:47;;;;;;;35.43;16.63;;;;;;;-142.75;100.00;79953.56;4996888;28;20033;-63
2023/01/21 08:33:12;;;;;;;41.42;16.77;;;;;;;-142.75;100.00;79959.47;5012327;28;20494;-63
2023/01/21 08:35:38;;;;;;;36.50;17.52;;;;;;;-142.75;100.00;79939.78;5003812;28;20039;-63
2023/01/21 08:38:03;;;;;;;40.33;16.67;;;;;;;-142.75;100.00;79910.22;5010199;28;20021;-65
2023/01/21 08:40:29;;;;;;;40.92;16.48;;;;;;;-142.75;100.00;79914.16;5010716;28;20355;-63
2023/01/21 08:43:01;;;;;;;38.63;16.38;;;;;;;-142.75;100.00;79914.16;5012740;28;20025;-67
2023/01/21 08:45:27;;;;;;;41.70;16.80;;;;;;;-142.75;100.00;79910.22;5012627;28;20034;-66
2023/01/21 08:47:53;;;;;;;34.25;15.98;;;;;;;-142.75;100.00;79898.41;5011899;28;20129;-67
2023/01/21 08:50:18;;;;;;;36.38;16.40;;;;;;;-142.75;100.00;79918.09;4993544;28;20036;-66
2023/01/21 08:52:51;;;;;;;37.05;16.92;;;;;;;-142.75;100.00;79880.66;5013986;28;20037;-66
2023/01/21 08:55:17;;;;;;;36.37;16.33;;;;;;;-142.75;100.00;79884.59;4995995;28;20028;-67
2023/01/21 08:57:42;;;;;;;43.83;17.70;;;;;;;-142.75;100.00;79831.41;4995261;28;20450;-62
2023/01/21 09:00:08;;;;;;;34.30;15.93;;;;;;;-142.75;100.00;79831.41;4996542;28;20469;-66
2023/01/21 09:02:34;;;;;;;37.20;15.48;;;;;;;-142.75;100.00;79780.19;5014252;28;20040;-65
2023/01/21 09:04:59;;;;;;;35.58;16.88;;;;;;;-142.75;100.00;79782.16;5019497;28;21019;-67
2023/01/21 09:07:24;;;;;;;38.50;16.60;;;;;;;-142.75;100.00;79784.13;4996619;28;20029;-65
2023/01/21 09:09:50;;;;;;;37.65;16.85;;;;;;;-142.75;100.00;79768.38;5016027;28;20095;-64
2023/01/21 09:12:15;;;;;;;38.17;17.00;;;;;;;-142.75;100.00;79803.84;4999770;28;20060;-65
2023/01/21 09:14:40;;;;;;;35.35;16.50;;;;;;;-142.75;100.00;79774.28;5019496;28;20573;-67
2023/01/21 09:17:06;;;;;;;35.30;16.50;;;;;;;-142.75;100.00;79778.22;5018580;28;20095;-64
2023/01/21 09:19:31;;;;;;;35.63;16.42;;;;;;;-142.75;100.00;79819.59;5016273;28;20036;-64
2023/01/21 09:21:56;;;;;;;36.30;16.00;;;;;;;-142.75;100.00;79835.34;5013010;28;20021;-64
2023/01/21 09:24:22;;;;;;;35.20;15.65;;;;;;;-142.75;100.00;79886.56;5010139;28;20052;-63
2023/01/21 09:26:47;;;;;;;34.97;15.25;;;;;;;-142.75;100.00;79898.41;5010542;28;20033;-64
2023/01/21 09:29:13;;;;;;;37.88;16.30;;;;;;;-142.75;100.00;79910.22;5011251;28;20025;-67
2023/01/21 09:31:39;;;;;;;29.60;14.02;;;;;;;-142.75;100.00;79916.13;4994574;28;20641;-65
2023/01/21 09:34:04;;;;;;;44.35;18.15;;;;;;;-142.75;100.00;79920.06;5013544;28;20090;-65
2023/01/21 09:36:32;;;;;;;41.53;18.83;;;;;;;-142.75;100.00;79874.75;4998956;28;20044;-67
2023/01/21 09:38:58;;;;;;;43.37;17.23;;;;;;;-142.75;100.00;79898.41;5017527;28;20029;-63
2023/01/21 09:41:26;;;;;;;;;;;;;;;-142.75;100.00;79880.66;4998962;28;20073;-63
2023/01/21 09:44:00;;;;;;;39.23;17.67;;;;;;;-142.75;100.00;79878.69;4998943;28;19986;-66
2023/01/21 09:46:31;;;;;;;40.13;16.27;;;;;;;-142.75;100.00;79955.53;4995012;28;20037;-65
2023/01/21 09:48:57;;;;;;;36.77;17.07;;;;;;;-142.75;100.00;79965.38;5010866;28;20125;-64
2023/01/21 09:51:34;;;;;;;39.47;17.10;;;;;;;-142.75;100.00;79992.97;4992697;28;20048;-65
2023/01/21 09:54:01;;;;;;;40.03;16.83;;;;;;;-142.75;100.00;79989.03;4993425;28;20032;-64
2023/01/21 09:56:48;;;;;;;40.30;16.40;;;;;;;-142.75;100.00;80054.03;5012814;28;20985;-63
2023/01/21 09:59:38;;;;;;;38.93;16.77;;;;;;;-142.75;100.00;80046.16;5011165;28;20581;-66
2023/01/21 10:02:13;;;;;;;36.53;16.27;;;;;;;-142.75;100.00;80056.00;5010384;28;20132;-62
2023/01/21 10:04:51;;;;;;;37.50;15.70;;;;;;;-142.75;100.00;80091.47;5013297;28;20117;-63
2023/01/21 10:07:29;;;;;;;31.43;14.73;;;;;;;-142.75;100.00;80107.22;5011748;28;20045;-62
2023/01/21 10:10:25;;;;;;;37.50;16.53;;;;;;;-142.75;100.00;80107.22;5012174;28;20032;-66
2023/01/21 10:13:30;;;;;;;36.07;15.37;;;;;;;-142.75;100.00;80079.66;4999102;28;20048;-64
2023/01/21 10:16:04;;;;;;;32.70;14.07;;;;;;;-142.75;100.00;80130.88;5000256;28;20045;-65
2023/01/21 10:18:33;;;;;;;33.73;14.07;;;;;;;-142.75;100.00;80093.44;4992540;28;20040;-64
2023/01/21 10:21:25;;;;;;;35.20;16.83;;;;;;;-142.75;100.00;80083.59;4995112;28;20152;-64
2023/01/21 10:23:56;;;;;;;41.27;16.97;;;;;;;-142.75;100.00;80138.75;5007962;28;20613;-64
2023/01/21 10:26:23;;;;;;;42.73;17.40;;;;;;;-142.75;100.00;80087.53;4994034;28;20026;-62
2023/01/21 10:28:52;;;;;;;43.23;16.60;;;;;;;-142.75;100.00;80099.34;4995124;28;20343;-64
2023/01/21 10:31:23;;;;;;;35.80;15.03;;;;;;;-142.75;100.00;80095.41;4994031;28;20033;-66
2023/01/21 10:33:48;;;;;;;39.47;15.07;;;;;;;-142.75;100.00;80099.34;4994067;28;20090;-62
2023/01/21 10:36:38;;;;;;;37.53;13.50;;;;;;;-142.75;100.00;80164.38;4994657;28;20025;-63
2023/01/21 10:39:08;;;;;;;37.63;16.30;;;;;;;-142.75;100.00;80095.41;4995915;28;20087;-63
2023/01/21 10:41:55;;;;;;;38.67;15.70;;;;;;;-142.75;100.00;80138.75;4994412;28;20037;-62
2023/01/21 10:44:51;;;;;;;44.07;15.70;;;;;;;-142.75;100.00;80130.88;5000032;28;20099;-62
2023/01/21 10:47:46;;;;;;;44.57;16.63;;;;;;;-142.75;100.00;80115.13;4978421;28;20041;-63
2023/01/21 10:50:27;;;;;;;46.50;19.63;;;;;;;-142.75;100.00;80119.06;4996680;28;20044;-65
2023/01/21 10:53:02;;;;;;;41.87;17.30;;;;;;;-142.75;100.00;80144.66;5014594;28;20029;-64
2023/01/21 10:55:36;;;;;;;49.77;18.60;;;;;;;-142.75;100.00;80128.91;5013333;28;20322;-66
2023/01/21 10:58:17;;;;;;;40.97;17.93;;;;;;;-142.75;100.00;80083.59;4995328;28;20665;-63
2023/01/21 11:00:47;;;;;;;41.97;17.23;;;;;;;-142.75;100.00;80075.72;4997404;28;20034;-63
2023/01/21 11:03:28;;;;;;;50.50;19.57;;;;;;;-142.75;100.00;80081.63;4995797;28;20199;-63
2023/01/21 11:05:53;;;;;;;45.50;18.77;;;;;;;-142.75;100.00;80050.09;5015188;28;20368;-62